プーケット の空港の天気 - METARとTAF

プーケット国際空港 ( VTSP / HKT ) - タイ プーケット県
飛行場実況気象(Metar)
観測時間10/31 04:30 ICT (10/30 21:30 UTC)
風向・風速不定 1m/s
視程10km以上
天気現象
少しの雲 雲底高度 610m
全天の4割程度の雲 雲底高度 3050m
気温24℃
湿度100%
気圧1009hPa
METARVTSP 302130Z VRB02KT 9999 FEW020 SCT100 24/24 Q1009 NOSIG
過去の天気等 Google飛行場航空写真 Wunderground天気予報

過去48時間のMETAR

飛行場予報(TAF)
発表時間: 10/31 00:00 ICT (10/30 17:00 UTC)
予報対象時間: 31日1時 ICT ~ 1日7時 ICT
風向・風速西北西 4m/s
視程10km以上
少しの雲 雲底高度 610m
31日1時 ICT ~ 31日7時 ICT に一時的に
風向・風速西北西 8m/s 瞬間風速 13m/s
視程3000m
天気現象
少しの積乱雲 雲底高度 550m
全天の4割程度の雲 雲底高度 610m
全天の8割程度の雲 雲底高度 3050m
31日9時 ICT ~ 31日15時 ICT に一時的に
風向・風速西北西 8m/s 瞬間風速 13m/s
視程3000m
天気現象
少しの積乱雲 雲底高度 550m
全天の4割程度の雲 雲底高度 610m
全天の8割程度の雲 雲底高度 3050m
31日19時 ICT ~ 31日21時 ICT に徐々に
風向・風速静穏
TAF VTSP 301700Z 3018/3124 29007KT 9999 FEW020
TEMPO 3018/3024 29015G25KT 3000 RA FEW018CB SCT020 BKN100
TEMPO 3102/3108 29015G25KT 3000 RA FEW018CB SCT020 BKN100
BECMG 3112/3114 00000KT